Itauba, Brazil
Current Conditions -  °F | °C
As of 10:00 AM on Saturday 22 Nov 2014 (Local Time) from SBAT Reporting Station
Broken Clouds Broken Clouds  
Wind Chill: 90°   Ceiling: 2000
Heat Index: 100°   Visibility: 6mi
Dew Point: 75°   Wind: 8mph
Humidity: 62%   Direction: 100°E
Pressure: 29.91"   Gusts: NA
Location:  11.06°S, 55.28°W
Report Text: SBAT 221300Z 10007KT 9999 BKN020 32/24 Q1013
Loading
Personal Weather Stations






























Interactive Weather Map New forecast layout! Learn more

10-Day Weather Forecast

Advertisements
Track Severe Weather on mobile